Piedmont, SD (57769)

1:16 AM MDT on September 03, 2014 (GMT -0600)
Elk Creek Ranchettes #2 | Change Station
CLOSE
Current Station
Personal Weather Station
Location: Piedmont, SD
Elevation: 3225 ft
Nearby Weather Stations

Elev 3225 ft 44.24 °N, 103.31 °W | Updated 8 seconds ago

Clear
Clear
57.2 °F
Feels Like 57.2 °F
N
2.0
Wind Variable Wind from NE
Gusts 4.0 mph

Today
High -- | Low -- °F
--% Chance of Precip.
Yesterday
High -- | Low -- °F
Precip. -- in
6:18 AM 7:25 PM
First Quarter, 59% visible
Pressure 29.67 in
Visibility 10.0 miles
Clouds Clear
Dew Point 47 °F
Humidity 68%
Rainfall 0.00 in
Snow Depth Not available.
UV 0 out of 12
Pollen 8.80 out of 12
Air Quality Not available.
Flu Activity Not available.
METAR KRCA 030658Z AUTO 22007KT 10SM CLR 15/08 A2973 RMK AO2 SLP047 T01470084 402710085 $

More Conditions Fewer Conditions

Pressure 29.67 in
Visibility 10.0 miles
Clouds Clear
Dew Point 47 °F
Humidity 68%
Rainfall 0.00 in
Snow Depth Not available.
UV 0 out of 12
Pollen 8.80 out of 12
Air Quality Not available.
Flu Activity Not available.
METAR KRCA 030658Z AUTO 22007KT 10SM CLR 15/08 A2973 RMK AO2 SLP047 T01470084 402710085 $

More Conditions Fewer Conditions

10-Day Weather Forecast

Almanac

Astronomy

Sep. 03, 2014 Rise Set
Actual Time 6:18 AM MDT 7:25 PM MDT
Civil Twilight 5:48 AM MDT 7:55 PM MDT
Nautical Twilight 5:12 AM MDT 8:30 PM MDT
Astronomical Twilight 4:35 AM MDT 9:08 PM MDT
Moon 3:16 PM MDT 12:07 AM MDT
Length of Visible Light 14h 06m
Length of Day
13h 07m
Tomorrow will be 2m 57s shorter.
First Quarter, 59% of the Moon is Illuminated
Today
First Quarter
Sep 8
Full
Sep 15
Last Quarter
Sep 24
New
Oct 1
First Quarter

Today's Extremes

State Highs State Lows

Community

WunderPhotos

Upload Photos

1,749,888 photos uploaded!

Nearby

Snow Depth

Station Depth Elevation
North Rapid Creek 0 in 6130 ft
Blind Park 0 in 6890 ft

Earthquake Activity

City Distance Mag. Time & Date
No recent earthquake activity has been reported nearby.
Minimum magnitude displayed is 2.5.

Coastal Water Temperatures

Place Temperature
No Stations Reporting

Nearby Weather Stations